Time;durP1;ratioP1;P1;durP2;ratioP2;P2;SDS_P1;SDS_P2;PMS_P1;PMS_P2;Temp;Humidity;BMP_temperature;BMP_pressure;BME280_temperature;BME280_humidity;BME280_pressure;Samples;Min_cycle;Max_cycle;Signal;HPM_P1;HPM_P2
2023/04/30 00:02:01;;;;;;;;;;;10.40;99.90;;;;;;5015763;28;19909;-85
2023/04/30 00:04:29;;;;;;;;;;;10.30;99.90;;;;;;5026432;28;19917;-85
2023/04/30 00:06:54;;;;;;;;;;;10.30;99.90;;;;;;5009139;28;19909;-86
2023/04/30 00:09:20;;;;;;;;;;;10.30;99.90;;;;;;5021738;28;19916;-86
2023/04/30 00:11:46;;;;;;;;;;;10.30;99.90;;;;;;5029156;28;19905;-86
2023/04/30 00:14:11;;;;;;;;;;;10.30;99.90;;;;;;5013246;28;20007;-86
2023/04/30 00:16:37;;;;;;;;;;;10.30;99.90;;;;;;5030150;28;19996;-87
2023/04/30 00:19:02;;;;;;;;;;;10.30;99.90;;;;;;5015821;28;20354;-87
2023/04/30 00:21:28;;;;;;;;;;;10.20;99.90;;;;;;5016669;28;19913;-87
2023/04/30 00:23:53;;;;;;;;;;;10.20;99.90;;;;;;5016222;28;20003;-87
2023/04/30 00:26:19;;;;;;;;;;;10.20;99.90;;;;;;5027537;28;19909;-87
2023/04/30 00:28:45;;;;;;;;;;;10.10;99.90;;;;;;5017011;28;20364;-87
2023/04/30 00:31:10;;;;;;;;;;;10.10;99.90;;;;;;5011464;28;19912;-87
2023/04/30 00:33:36;;;;;;;;;;;10.00;99.90;;;;;;5016040;28;20365;-87
2023/04/30 00:36:01;;;;;;;;;;;10.00;99.90;;;;;;5011007;28;19912;-87
2023/04/30 00:38:27;;;;;;;;;;;10.00;99.90;;;;;;5017579;28;19975;-87
2023/04/30 00:40:52;;;;;;;;;;;10.00;99.90;;;;;;5016291;28;19916;-87
2023/04/30 00:43:18;;;;;;;;;;;10.00;99.90;;;;;;5024203;28;19982;-87
2023/04/30 00:45:43;;;;;;;;;;;9.90;99.90;;;;;;5032239;28;19909;-87
2023/04/30 00:48:09;;;;;;;;;;;9.90;99.90;;;;;;5024786;28;19914;-87
2023/04/30 00:50:35;;;;;;;;;;;9.90;99.90;;;;;;5015160;28;19913;-87
2023/04/30 00:53:01;;;;;;;;;;;9.80;99.90;;;;;;5033300;28;19905;-87
2023/04/30 00:55:27;;;;;;;;;;;9.80;99.90;;;;;;5011583;28;19909;-87
2023/04/30 00:57:52;;;;;;;;;;;9.80;99.90;;;;;;5015354;28;19913;-87
2023/04/30 01:00:18;;;;;;;;;;;9.80;99.90;;;;;;5028785;28;19913;-87
2023/04/30 01:02:43;;;;;;;;;;;9.70;99.90;;;;;;5022580;28;20364;-87
2023/04/30 01:05:09;;;;;;;;;;;9.70;99.90;;;;;;5015339;28;19958;-87
2023/04/30 01:07:37;;;;;;;;;;;9.70;99.90;;;;;;5030274;28;19931;-86
2023/04/30 01:10:03;;;;;;;;;;;9.70;99.90;;;;;;5016061;28;20269;-87
2023/04/30 01:12:32;;;;;;;;;;;9.60;99.90;;;;;;5031926;28;19905;-86
2023/04/30 01:15:04;;;;;;;;;;;9.60;99.90;;;;;;5030005;28;19913;-87
2023/04/30 01:17:30;;;;;;;;;;;9.50;99.90;;;;;;5002131;28;19917;-87
2023/04/30 01:19:56;;;;;;;;;;;9.50;99.90;;;;;;5012851;28;19909;-87
2023/04/30 01:22:32;;;;;;;;;;;9.50;99.90;;;;;;5013799;28;20371;-84
2023/04/30 01:25:02;;;;;;;;;;;9.50;99.90;;;;;;5011923;28;19905;-87
2023/04/30 01:27:40;;;;;;;;;;;9.40;99.90;;;;;;5012685;28;20336;-86
2023/04/30 01:30:06;;;;;;;;;;;9.50;99.90;;;;;;5030998;28;19992;-86
2023/04/30 01:32:31;;;;;;;;;;;9.50;99.90;;;;;;5012866;28;20580;-87
2023/04/30 01:34:57;;;;;;;;;;;9.40;99.90;;;;;;5014105;28;19909;-86
2023/04/30 01:37:31;;;;;;;;;;;9.40;99.90;;;;;;5022188;28;20068;-86
2023/04/30 01:40:16;;;;;;;;;;;9.40;99.90;;;;;;5013549;28;19913;-87
2023/04/30 01:42:51;;;;;;;;;;;9.40;99.90;;;;;;5032004;28;19919;-87
2023/04/30 01:45:25;;;;;;;;;;;9.30;99.90;;;;;;5006556;28;19940;-85
2023/04/30 01:47:58;;;;;;;;;;;9.30;99.90;;;;;;5012888;28;20340;-85
2023/04/30 01:50:36;;;;;;;;;;;9.20;99.90;;;;;;5043041;28;19912;-85
2023/04/30 01:53:04;;;;;;;;;;;9.10;99.90;;;;;;5039904;28;19909;-84
2023/04/30 01:55:36;;;;;;;;;;;9.10;99.90;;;;;;5030668;28;19956;-85
2023/04/30 01:58:02;;;;;;;;;;;9.10;99.90;;;;;;5011165;28;19913;-85
2023/04/30 02:00:29;;;;;;;;;;;9.10;99.90;;;;;;5026071;28;20372;-85
2023/04/30 02:02:55;;;;;;;;;;;9.10;99.90;;;;;;5025665;28;20668;-85
2023/04/30 02:05:20;;;;;;;;;;;9.00;99.90;;;;;;5037494;28;19905;-84
2023/04/30 02:07:47;;;;;;;;;;;9.00;99.90;;;;;;5021659;28;19905;-84
2023/04/30 02:10:13;;;;;;;;;;;9.00;99.90;;;;;;5020016;28;19905;-85
2023/04/30 02:12:39;;;;;;;;;;;9.00;99.90;;;;;;5013025;28;19928;-85
2023/04/30 02:15:05;;;;;;;;;;;8.90;99.90;;;;;;5031768;28;19905;-84
2023/04/30 02:17:31;;;;;;;;;;;9.00;99.90;;;;;;5029661;28;19967;-85
2023/04/30 02:19:57;;;;;;;;;;;9.00;99.90;;;;;;5019309;28;19912;-85
2023/04/30 02:22:40;;;;;;;;;;;8.90;99.90;;;;;;5028552;28;19909;-85
2023/04/30 02:25:05;;;;;;;;;;;8.90;99.90;;;;;;5030672;28;19963;-84
2023/04/30 02:27:32;;;;;;;;;;;8.90;99.90;;;;;;5027919;28;19906;-85
2023/04/30 02:29:58;;;;;;;;;;;8.80;99.90;;;;;;5030929;28;19912;-85
2023/04/30 02:32:23;;;;;;;;;;;8.80;99.90;;;;;;5029881;28;19905;-85
2023/04/30 02:34:56;;;;;;;;;;;8.80;99.90;;;;;;5027184;28;20415;-85
2023/04/30 02:37:22;;;;;;;;;;;8.70;99.90;;;;;;5021500;28;19905;-85
2023/04/30 02:39:48;;;;;;;;;;;8.70;99.90;;;;;;5027452;28;19916;-85
2023/04/30 02:42:13;;;;;;;;;;;8.70;99.90;;;;;;5028900;28;19936;-85
2023/04/30 02:44:42;;;;;;;;;;;8.70;99.90;;;;;;5018555;28;20143;-85
2023/04/30 02:47:07;;;;;;;;;;;8.70;99.90;;;;;;5029526;28;19912;-84
2023/04/30 02:49:33;;;;;;;;;;;8.70;99.90;;;;;;5017099;28;20265;-84
2023/04/30 02:51:58;;;;;;;;;;;8.60;99.90;;;;;;5010983;28;19913;-84
2023/04/30 02:54:24;;;;;;;;;;;8.60;99.90;;;;;;5010606;28;19951;-84
2023/04/30 02:56:50;;;;;;;;;;;8.50;99.90;;;;;;5031437;28;19916;-85
2023/04/30 02:59:15;;;;;;;;;;;8.50;99.90;;;;;;5027861;28;20566;-86
2023/04/30 03:01:41;;;;;;;;;;;8.50;99.90;;;;;;5019465;28;19924;-85
2023/04/30 03:04:06;;;;;;;;;;;8.60;99.90;;;;;;5012088;28;19905;-85
2023/04/30 03:06:32;;;;;;;;;;;8.60;99.90;;;;;;5028581;28;19932;-85
2023/04/30 03:08:57;;;;;;;;;;;8.60;99.90;;;;;;5018793;28;19905;-85
2023/04/30 03:11:23;;;;;;;;;;;8.60;99.90;;;;;;5028058;28;19915;-85
2023/04/30 03:13:51;;;;;;;;;;;8.60;99.90;;;;;;5029131;28;19905;-85
2023/04/30 03:16:18;;;;;;;;;;;8.50;99.90;;;;;;5029511;28;19909;-85
2023/04/30 03:18:47;;;;;;;;;;;8.50;99.90;;;;;;5011863;28;20007;-85
2023/04/30 03:21:15;;;;;;;;;;;8.50;99.90;;;;;;5028758;28;19952;-85
2023/04/30 03:23:40;;;;;;;;;;;8.40;99.90;;;;;;5010505;28;19928;-84
2023/04/30 03:26:07;;;;;;;;;;;8.40;99.90;;;;;;5011461;28;20353;-84
2023/04/30 03:28:33;;;;;;;;;;;8.40;99.90;;;;;;5017627;28;19929;-85
2023/04/30 03:30:59;;;;;;;;;;;8.40;99.90;;;;;;5027306;28;19905;-84
2023/04/30 03:33:25;;;;;;;;;;;8.40;99.90;;;;;;5027847;28;20341;-86
2023/04/30 03:35:50;;;;;;;;;;;8.40;99.90;;;;;;5029931;28;19905;-86
2023/04/30 03:38:16;;;;;;;;;;;8.40;99.90;;;;;;5025335;28;19909;-85
2023/04/30 03:40:42;;;;;;;;;;;8.30;99.90;;;;;;5018312;28;19909;-83
2023/04/30 03:43:07;;;;;;;;;;;8.30;99.90;;;;;;5018420;28;19905;-84
2023/04/30 03:45:33;;;;;;;;;;;8.30;99.90;;;;;;5027630;28;20228;-85
2023/04/30 03:47:58;;;;;;;;;;;8.20;99.90;;;;;;5011794;28;19914;-85
2023/04/30 03:50:26;;;;;;;;;;;8.20;99.90;;;;;;5026699;28;19940;-84
2023/04/30 03:52:52;;;;;;;;;;;8.20;99.90;;;;;;5029168;28;19920;-85
2023/04/30 03:55:17;;;;;;;;;;;8.20;99.90;;;;;;5018784;28;19996;-86
2023/04/30 03:57:43;;;;;;;;;;;8.20;99.90;;;;;;5027924;28;20280;-84
2023/04/30 04:00:12;;;;;;;;;;;8.20;99.90;;;;;;5028522;28;19917;-85
2023/04/30 04:02:38;;;;;;;;;;;8.20;99.90;;;;;;5009311;28;19964;-84
2023/04/30 04:05:03;;;;;;;;;;;8.20;99.90;;;;;;5024291;28;19906;-85
2023/04/30 04:07:29;;;;;;;;;;;8.20;99.90;;;;;;5039991;28;19905;-86
2023/04/30 04:09:55;;;;;;;;;;;8.10;99.90;;;;;;5035745;28;19928;-86
2023/04/30 04:12:20;;;;;;;;;;;8.10;99.90;;;;;;5010082;28;20375;-84
2023/04/30 04:14:46;;;;;;;;;;;8.10;99.90;;;;;;5028586;28;19905;-84
2023/04/30 04:17:11;;;;;;;;;;;8.10;99.90;;;;;;5019576;28;19913;-86
2023/04/30 04:19:37;;;;;;;;;;;8.20;99.90;;;;;;5018424;28;20260;-86
2023/04/30 04:22:03;;;;;;;;;;;8.10;99.90;;;;;;5043227;28;19995;-86
2023/04/30 04:24:28;;;;;;;;;;;8.10;99.90;;;;;;5017894;28;19912;-86
2023/04/30 04:26:54;;;;;;;;;;;8.10;99.90;;;;;;5011997;28;19909;-86
2023/04/30 04:29:20;;;;;;;;;;;8.10;99.90;;;;;;5010467;28;19909;-86
2023/04/30 04:31:47;;;;;;;;;;;8.10;99.90;;;;;;5009143;28;19905;-86
2023/04/30 04:34:13;;;;;;;;;;;8.10;99.90;;;;;;5011262;28;20349;-85
2023/04/30 04:36:39;;;;;;;;;;;8.10;99.90;;;;;;5029326;28;19905;-86
2023/04/30 04:39:07;;;;;;;;;;;8.20;99.90;;;;;;5015149;28;19947;-86
2023/04/30 04:41:33;;;;;;;;;;;8.10;99.90;;;;;;5013885;28;20682;-85
2023/04/30 04:44:00;;;;;;;;;;;8.20;99.90;;;;;;5014103;28;19909;-86
2023/04/30 04:46:27;;;;;;;;;;;8.20;99.90;;;;;;5011851;28;19991;-86
2023/04/30 04:48:53;;;;;;;;;;;8.20;99.90;;;;;;5031748;28;20352;-86
2023/04/30 04:51:18;;;;;;;;;;;8.30;99.90;;;;;;5020959;28;19916;-84
2023/04/30 04:53:44;;;;;;;;;;;8.30;99.90;;;;;;5016207;28;19905;-85
2023/04/30 04:56:09;;;;;;;;;;;8.40;99.90;;;;;;5043166;28;19917;-86
2023/04/30 04:58:35;;;;;;;;;;;8.50;99.90;;;;;;5012410;28;19951;-86
2023/04/30 05:01:01;;;;;;;;;;;8.50;99.90;;;;;;5013783;28;19917;-86
2023/04/30 05:03:35;;;;;;;;;;;8.60;99.90;;;;;;5026499;28;19974;-86
2023/04/30 05:06:01;;;;;;;;;;;8.60;99.90;;;;;;5027956;28;19909;-87
2023/04/30 05:08:27;;;;;;;;;;;8.60;99.90;;;;;;5031576;28;19905;-86
2023/04/30 05:10:52;;;;;;;;;;;8.70;99.90;;;;;;5012448;28;19905;-86
2023/04/30 05:13:18;;;;;;;;;;;8.80;99.90;;;;;;5014465;28;19913;-86
2023/04/30 05:15:43;;;;;;;;;;;9.00;99.90;;;;;;5032244;28;19912;-86
2023/04/30 05:18:09;;;;;;;;;;;9.10;99.90;;;;;;5015642;28;19935;-86
2023/04/30 05:20:37;;;;;;;;;;;9.20;99.90;;;;;;5020918;28;19913;-86
2023/04/30 05:23:02;;;;;;;;;;;9.20;99.90;;;;;;5018239;28;19959;-86
2023/04/30 05:25:28;;;;;;;;;;;9.30;99.90;;;;;;5031300;28;20382;-86
2023/04/30 05:27:55;;;;;;;;;;;9.30;99.90;;;;;;5020121;28;20438;-86
2023/04/30 05:30:20;;;;;;;;;;;9.40;99.90;;;;;;5009767;28;19957;-86
2023/04/30 05:32:49;;;;;;;;;;;9.50;99.90;;;;;;5031770;28;19905;-85
2023/04/30 05:35:15;;;;;;;;;;;9.60;99.90;;;;;;5020541;28;20042;-86
2023/04/30 05:37:41;;;;;;;;;;;9.60;99.90;;;;;;5031857;28;19962;-86
2023/04/30 05:40:07;;;;;;;;;;;9.70;99.90;;;;;;5018780;28;19909;-86
2023/04/30 05:42:32;;;;;;;;;;;9.80;99.90;;;;;;5006046;28;19909;-87
2023/04/30 05:44:58;;;;;;;;;;;9.80;99.90;;;;;;5030969;28;19905;-86
2023/04/30 05:47:23;;;;;;;;;;;9.80;99.90;;;;;;5028143;28;19905;-86
2023/04/30 05:49:51;;;;;;;;;;;9.90;99.90;;;;;;5018162;28;20091;-86
2023/04/30 05:52:16;;;;;;;;;;;9.90;99.90;;;;;;5013451;28;20300;-86
2023/04/30 05:54:42;;;;;;;;;;;10.10;99.90;;;;;;5030600;28;19923;-86
2023/04/30 05:57:08;;;;;;;;;;;10.10;99.90;;;;;;5013726;28;19974;-87
2023/04/30 05:59:33;;;;;;;;;;;10.10;99.90;;;;;;5010730;28;19912;-86
2023/04/30 06:01:59;;;;;;;;;;;10.20;99.90;;;;;;5031560;28;19960;-86
2023/04/30 06:04:24;;;;;;;;;;;10.30;99.90;;;;;;5031105;28;19912;-86
2023/04/30 06:06:52;;;;;;;;;;;10.40;99.90;;;;;;5011777;28;19912;-84
2023/04/30 06:09:18;;;;;;;;;;;10.40;99.90;;;;;;5012907;28;19905;-85
2023/04/30 06:11:44;;;;;;;;;;;10.40;99.90;;;;;;5009383;28;20414;-86
2023/04/30 06:14:10;;;;;;;;;;;10.50;99.90;;;;;;5012606;28;19984;-86
2023/04/30 06:16:35;;;;;;;;;;;10.60;99.90;;;;;;5030944;28;19905;-84
2023/04/30 06:19:01;;;;;;;;;;;10.60;99.90;;;;;;5019218;28;19916;-84
2023/04/30 06:21:27;;;;;;;;;;;10.50;99.90;;;;;;5009090;28;19916;-86
2023/04/30 06:23:52;;;;;;;;;;;10.60;99.90;;;;;;5038241;28;19909;-86
2023/04/30 06:26:18;;;;;;;;;;;10.70;99.90;;;;;;5011245;28;19905;-86
2023/04/30 06:28:44;;;;;;;;;;;10.70;99.90;;;;;;5028782;28;19904;-86
2023/04/30 06:31:09;;;;;;;;;;;10.80;99.90;;;;;;5011076;28;19909;-85
2023/04/30 06:33:35;;;;;;;;;;;10.90;99.90;;;;;;5029144;28;19949;-86
2023/04/30 06:36:00;;;;;;;;;;;11.00;99.90;;;;;;5029354;28;19909;-86
2023/04/30 06:38:26;;;;;;;;;;;11.10;99.90;;;;;;5011084;28;19909;-86
2023/04/30 06:40:51;;;;;;;;;;;11.10;99.90;;;;;;5012096;28;19956;-86
2023/04/30 06:43:17;;;;;;;;;;;11.20;99.90;;;;;;5028667;28;19905;-86
2023/04/30 06:45:42;;;;;;;;;;;11.30;99.90;;;;;;5016267;28;19905;-86
2023/04/30 06:48:08;;;;;;;;;;;11.30;99.90;;;;;;5019900;28;19920;-84
2023/04/30 06:50:42;;;;;;;;;;;11.40;99.90;;;;;;5028333;28;19917;-84
2023/04/30 06:53:08;;;;;;;;;;;11.50;99.90;;;;;;5014002;28;19912;-85
2023/04/30 06:55:33;;;;;;;;;;;11.60;99.90;;;;;;5031762;28;19920;-83
2023/04/30 06:57:59;;;;;;;;;;;11.60;99.90;;;;;;5017034;28;19911;-84
2023/04/30 07:00:25;;;;;;;;;;;11.70;99.90;;;;;;5010284;28;19920;-84
2023/04/30 07:02:50;;;;;;;;;;;11.80;99.90;;;;;;5018765;28;19920;-84
2023/04/30 07:05:16;;;;;;;;;;;11.70;99.90;;;;;;5027286;28;19905;-84
2023/04/30 07:07:42;;;;;;;;;;;11.80;99.90;;;;;;5016395;28;19916;-84
2023/04/30 07:10:07;;;;;;;;;;;11.80;99.90;;;;;;5010044;28;19913;-84
2023/04/30 07:12:33;;;;;;;;;;;12.00;99.90;;;;;;5014333;28;20448;-84
2023/04/30 07:14:58;;;;;;;;;;;12.10;99.90;;;;;;5030908;28;20391;-84
2023/04/30 07:17:26;;;;;;;;;;;12.20;99.90;;;;;;5008698;28;19959;-84
2023/04/30 07:19:52;;;;;;;;;;;12.30;99.90;;;;;;5030135;28;19905;-83
2023/04/30 07:22:26;;;;;;;;;;;12.40;99.90;;;;;;5017706;28;20280;-83
2023/04/30 07:24:52;;;;;;;;;;;12.50;99.90;;;;;;5027465;28;20272;-84
2023/04/30 07:27:17;;;;;;;;;;;12.60;99.90;;;;;;5029732;28;19905;-84
2023/04/30 07:29:50;;;;;;;;;;;12.60;99.90;;;;;;5018700;28;19905;-84
2023/04/30 07:32:16;;;;;;;;;;;12.70;99.90;;;;;;5026779;28;19913;-83
2023/04/30 07:34:42;;;;;;;;;;;12.70;99.90;;;;;;5015482;28;19905;-84
2023/04/30 07:37:08;;;;;;;;;;;12.80;99.90;;;;;;5026606;28;19905;-83
2023/04/30 07:39:34;;;;;;;;;;;13.00;99.90;;;;;;5029298;28;20003;-84
2023/04/30 07:42:02;;;;;;;;;;;13.10;99.90;;;;;;5011479;28;20012;-84
2023/04/30 07:44:27;;;;;;;;;;;13.20;99.90;;;;;;5028246;28;19992;-85
2023/04/30 07:46:55;;;;;;;;;;;13.20;99.90;;;;;;5015259;28;19937;-85
2023/04/30 07:49:21;;;;;;;;;;;13.30;99.90;;;;;;5028545;28;19994;-83
2023/04/30 07:51:46;;;;;;;;;;;13.50;99.90;;;;;;5025881;28;19913;-85
2023/04/30 07:54:12;;;;;;;;;;;13.60;99.90;;;;;;5009172;28;19944;-82
2023/04/30 07:56:38;;;;;;;;;;;13.80;99.90;;;;;;5025130;28;19917;-82
2023/04/30 07:59:04;;;;;;;;;;;14.00;99.90;;;;;;5048773;28;19940;-82
2023/04/30 08:01:29;;;;;;;;;;;14.30;99.90;;;;;;5036637;28;19971;-82
2023/04/30 08:03:55;;;;;;;;;;;14.30;99.90;;;;;;5013952;28;19916;-81
2023/04/30 08:06:21;;;;;;;;;;;14.40;99.90;;;;;;5023887;28;19905;-82
2023/04/30 08:08:49;;;;;;;;;;;14.40;99.90;;;;;;5020411;28;19951;-82
2023/04/30 08:11:15;;;;;;;;;;;14.60;99.90;;;;;;5021018;28;19913;-82
2023/04/30 08:13:41;;;;;;;;;;;14.70;99.90;;;;;;5026870;28;19989;-81
2023/04/30 08:16:06;;;;;;;;;;;15.00;99.90;;;;;;5026390;28;20324;-82
2023/04/30 08:18:32;;;;;;;;;;;15.20;99.90;;;;;;5010076;28;19912;-82
2023/04/30 08:21:00;;;;;;;;;;;15.40;99.90;;;;;;5027323;28;20005;-81
2023/04/30 08:23:26;;;;;;;;;;;15.60;99.90;;;;;;5006764;28;19959;-82
2023/04/30 08:25:51;;;;;;;;;;;15.90;99.90;;;;;;5025551;28;19960;-84
2023/04/30 08:28:17;;;;;;;;;;;16.20;99.90;;;;;;5007182;28;19913;-86
2023/04/30 08:30:43;;;;;;;;;;;16.30;99.90;;;;;;5026084;28;19912;-82
2023/04/30 08:33:09;;;;;;;;;;;16.60;99.90;;;;;;5024937;28;19916;-82
2023/04/30 08:35:34;;;;;;;;;;;16.80;99.90;;;;;;5023600;28;19905;-82
2023/04/30 08:38:00;;;;;;;;;;;17.30;99.90;;;;;;5008581;28;19920;-81
2023/04/30 08:40:26;;;;;;;;;;;17.50;99.90;;;;;;5025749;28;19936;-80
2023/04/30 08:43:03;;;;;;;;;;;17.60;99.90;;;;;;5027512;28;19905;-81
2023/04/30 08:45:30;;;;;;;;;;;17.70;99.90;;;;;;5006716;28;19918;-85
2023/04/30 08:47:58;;;;;;;;;;;18.00;99.90;;;;;;5013353;28;19913;-82
2023/04/30 08:50:24;;;;;;;;;;;18.10;99.90;;;;;;5018130;28;19967;-82
2023/04/30 08:52:49;;;;;;;;;;;18.20;99.90;;;;;;5007040;28;19940;-81
2023/04/30 08:55:15;;;;;;;;;;;18.40;99.90;;;;;;5025883;28;19996;-83
2023/04/30 08:57:40;;;;;;;;;;;18.50;99.80;;;;;;5008480;28;20455;-80
2023/04/30 09:00:06;;;;;;;;;;;18.60;99.00;;;;;;5026685;28;19905;-82
2023/04/30 09:02:35;;;;;;;;;;;18.90;99.90;;;;;;5016361;28;19905;-81
2023/04/30 09:05:00;;;;;;;;;;;19.10;98.70;;;;;;5008586;28;20364;-81
2023/04/30 09:07:27;;;;;;;;;;;19.40;98.20;;;;;;5008002;28;19971;-82
2023/04/30 09:09:53;;;;;;;;;;;19.70;96.80;;;;;;5024175;28;19940;-81
2023/04/30 09:12:19;;;;;;;;;;;19.90;96.60;;;;;;5023945;28;19956;-82
2023/04/30 09:15:04;;;;;;;;;;;20.10;97.50;;;;;;5013486;28;19909;-82
2023/04/30 09:17:30;;;;;;;;;;;20.40;95.70;;;;;;5003014;28;19917;-81
2023/04/30 09:20:08;;;;;;;;;;;20.40;94.90;;;;;;5023976;28;20327;-82
2023/04/30 09:22:35;;;;;;;;;;;20.40;95.00;;;;;;5026554;28;20375;-82
2023/04/30 09:25:00;;;;;;;;;;;20.30;94.10;;;;;;5028238;28;19913;-82
2023/04/30 09:27:26;;;;;;;;;;;20.40;93.90;;;;;;5028877;28;19912;-82
2023/04/30 09:29:51;;;;;;;;;;;20.50;93.20;;;;;;5029749;28;19952;-81
2023/04/30 09:32:18;;;;;;;;;;;21.00;93.90;;;;;;5012328;28;20550;-82
2023/04/30 09:34:43;;;;;;;;;;;21.00;91.80;;;;;;5028805;28;20527;-82
2023/04/30 09:37:09;;;;;;;;;;;20.90;90.90;;;;;;5011534;28;20016;-85
2023/04/30 09:39:54;;;;;;;;;;;20.70;90.50;;;;;;5030900;28;20328;-82
2023/04/30 09:42:20;;;;;;;;;;;21.00;90.90;;;;;;5027935;28;19951;-81
2023/04/30 09:44:45;;;;;;;;;;;20.90;90.00;;;;;;5027140;28;19917;-82
2023/04/30 09:47:18;;;;;;;;;;;20.90;90.10;;;;;;5029325;28;20365;-82
2023/04/30 09:49:46;;;;;;;;;;;21.30;91.00;;;;;;5029446;28;20040;-82
2023/04/30 09:52:14;;;;;;;;;;;21.60;89.00;;;;;;5010380;28;19905;-81
2023/04/30 09:54:40;;;;;;;;;;;21.90;86.50;;;;;;5010286;28;19944;-82
2023/04/30 09:57:09;;;;;;;;;;;22.30;88.00;;;;;;5033921;28;19920;-80
2023/04/30 09:59:36;;;;;;;;;;;22.50;86.70;;;;;;5014247;28;19920;-82
2023/04/30 10:02:03;;;;;;;;;;;22.90;85.30;;;;;;5029525;28;19917;-81
2023/04/30 10:04:31;;;;;;;;;;;23.20;82.30;;;;;;5011485;28;20356;-81
2023/04/30 10:06:57;;;;;;;;;;;23.70;80.50;;;;;;5026335;28;19959;-83
2023/04/30 10:09:43;;;;;;;;;;;23.60;80.60;;;;;;5009832;28;19906;-80
2023/04/30 10:12:15;;;;;;;;;;;23.80;78.80;;;;;;5021723;28;19955;-83
2023/04/30 10:14:44;;;;;;;;;;;23.60;78.60;;;;;;5011643;28;20007;-81
2023/04/30 10:17:15;;;;;;;;;;;23.60;77.20;;;;;;5008282;28;19913;-82
2023/04/30 10:19:45;;;;;;;;;;;23.80;75.90;;;;;;5018141;28;19913;-86
2023/04/30 10:22:10;;;;;;;;;;;24.10;76.80;;;;;;5011742;28;20007;-82
2023/04/30 10:24:36;;;;;;;;;;;23.80;75.90;;;;;;5029892;28;20402;-82
2023/04/30 10:27:02;;;;;;;;;;;23.80;76.90;;;;;;5011661;28;20356;-82
2023/04/30 10:29:27;;;;;;;;;;;23.60;74.20;;;;;;5028960;28;19908;-86
2023/04/30 10:31:53;;;;;;;;;;;23.10;75.70;;;;;;5015785;28;20294;-82
2023/04/30 10:34:19;;;;;;;;;;;22.90;75.90;;;;;;5028645;28;19917;-88
2023/04/30 10:36:47;;;;;;;;;;;23.00;76.90;;;;;;5010293;28;19924;-81
2023/04/30 10:39:17;;;;;;;;;;;23.00;75.30;;;;;;5015245;28;19913;-81
2023/04/30 10:41:48;;;;;;;;;;;23.00;76.50;;;;;;5026271;28;19971;-81
2023/04/30 10:44:14;;;;;;;;;;;22.90;75.60;;;;;;5422094;23;19909;-92
2023/04/30 10:46:40;;;;;;;;;;;22.90;78.50;;;;;;5027472;28;19912;-89
2023/04/30 10:49:06;;;;;;;;;;;22.70;79.20;;;;;;5009587;28;19909;-82
2023/04/30 10:51:46;;;;;;;;;;;22.70;77.80;;;;;;5002835;28;20433;-82
2023/04/30 10:54:13;;;;;;;;;;;22.70;77.90;;;;;;5006997;28;19929;-83
2023/04/30 10:56:39;;;;;;;;;;;22.90;79.50;;;;;;4994716;28;19995;-81
2023/04/30 10:59:06;;;;;;;;;;;23.00;77.40;;;;;;4989139;28;20431;-83
2023/04/30 11:01:51;;;;;;;;;;;23.20;75.70;;;;;;5004790;28;19914;-85
2023/04/30 11:04:17;;;;;;;;;;;23.30;76.60;;;;;;4974279;28;19914;-90
2023/04/30 11:06:56;;;;;;;;;;;23.60;76.10;;;;;;4998833;28;20746;-90
2023/04/30 11:09:36;;;;;;;;;;;23.70;75.00;;;;;;4984472;28;20360;-89
2023/04/30 11:12:12;;;;;;;;;;;23.40;76.80;;;;;;5006345;28;20352;-86
2023/04/30 11:14:42;;;;;;;;;;;23.10;75.80;;;;;;4986331;28;19905;-88
2023/04/30 11:17:08;;;;;;;;;;;22.80;75.40;;;;;;5006162;28;20030;-87
2023/04/30 11:19:34;;;;;;;;;;;22.60;75.50;;;;;;4985181;28;19909;-90
2023/04/30 11:22:02;;;;;;;;;;;22.90;75.40;;;;;;4984598;28;19913;-88
2023/04/30 11:24:47;;;;;;;;;;;23.20;74.50;;;;;;4989547;28;19910;-90
2023/04/30 11:27:14;;;;;;;;;;;23.30;75.10;;;;;;4999517;28;19913;-81
2023/04/30 11:29:42;;;;;;;;;;;23.30;74.80;;;;;;4985928;28;19914;-81
2023/04/30 11:32:07;;;;;;;;;;;23.40;74.20;;;;;;4990705;28;19939;-93
2023/04/30 11:34:33;;;;;;;;;;;23.30;74.80;;;;;;4983501;28;19931;-83
2023/04/30 11:37:00;;;;;;;;;;;23.20;74.70;;;;;;4984291;28;19956;-80
2023/04/30 11:39:27;;;;;;;;;;;23.20;72.30;;;;;;5004034;28;19916;-80
2023/04/30 11:41:52;;;;;;;;;;;23.30;72.80;;;;;;5002722;28;19920;-80
2023/04/30 11:44:27;;;;;;;;;;;23.30;72.50;;;;;;5003899;28;19960;-81
2023/04/30 11:46:53;;;;;;;;;;;23.30;72.10;;;;;;5000173;28;20008;-86
2023/04/30 11:49:22;;;;;;;;;;;23.10;71.60;;;;;;5004202;28;20016;-80
2023/04/30 11:51:50;;;;;;;;;;;23.30;74.70;;;;;;5000820;28;21196;-80
2023/04/30 11:54:17;;;;;;;;;;;23.50;71.40;;;;;;4977347;28;20008;-81
2023/04/30 11:56:49;;;;;;;;;;;23.70;71.60;;;;;;4999631;28;20744;-80
2023/04/30 11:59:17;;;;;;;;;;;23.80;71.10;;;;;;5001762;28;20205;-86
2023/04/30 12:01:43;;;;;;;;;;;23.70;71.00;;;;;;5001086;28;20092;-82
2023/04/30 12:04:08;;;;;;;;;;;23.80;70.10;;;;;;5002181;28;20077;-82
2023/04/30 12:06:34;;;;;;;;;;;24.00;68.90;;;;;;4997387;28;19913;-82
2023/04/30 12:09:02;;;;;;;;;;;24.00;68.60;;;;;;5002683;28;19972;-80
2023/04/30 12:11:29;;;;;;;;;;;23.80;68.00;;;;;;4996454;28;19933;-82
2023/04/30 12:14:11;;;;;;;;;;;23.70;68.30;;;;;;4977274;28;19921;-82
2023/04/30 12:16:42;;;;;;;;;;;23.70;69.40;;;;;;4978784;28;19913;-83
2023/04/30 12:19:11;;;;;;;;;;;23.80;68.30;;;;;;5001895;28;20296;-82
2023/04/30 12:21:37;;;;;;;;;;;23.90;69.80;;;;;;4999799;28;19922;-82
2023/04/30 12:24:03;;;;;;;;;;;23.90;69.20;;;;;;5001581;28;19964;-87
2023/04/30 12:26:38;;;;;;;;;;;23.90;69.40;;;;;;5001268;28;20662;-81
2023/04/30 12:29:08;;;;;;;;;;;24.00;67.60;;;;;;4983899;28;20000;-81
2023/04/30 12:31:35;;;;;;;;;;;24.10;69.10;;;;;;4984550;28;20288;-82
2023/04/30 12:34:07;;;;;;;;;;;24.20;67.70;;;;;;5001669;28;20040;-86
2023/04/30 12:36:35;;;;;;;;;;;24.00;65.00;;;;;;5001053;28;20415;-86
2023/04/30 12:39:11;;;;;;;;;;;24.40;66.30;;;;;;5002273;28;19937;-87
2023/04/30 12:41:41;;;;;;;;;;;24.50;64.50;;;;;;4982375;28;19913;-86
2023/04/30 12:44:17;;;;;;;;;;;24.50;64.80;;;;;;5019569;28;19916;-86
2023/04/30 12:46:44;;;;;;;;;;;24.70;63.90;;;;;;5007019;28;19953;-87
2023/04/30 12:49:10;;;;;;;;;;;24.90;64.20;;;;;;4998832;28;19905;-85
2023/04/30 12:51:35;;;;;;;;;;;25.10;63.00;;;;;;4984500;28;19913;-87
2023/04/30 12:54:01;;;;;;;;;;;25.20;63.10;;;;;;5000726;28;20264;-86
2023/04/30 12:56:26;;;;;;;;;;;25.20;61.60;;;;;;5000417;28;20180;-87
2023/04/30 12:58:52;;;;;;;;;;;24.90;61.70;;;;;;5005341;28;19905;-86
2023/04/30 13:01:22;;;;;;;;;;;24.60;62.30;;;;;;5000376;28;19928;-85
2023/04/30 13:03:48;;;;;;;;;;;24.70;61.50;;;;;;5002790;28;20199;-86
2023/04/30 13:06:14;;;;;;;;;;;24.50;62.30;;;;;;4997500;28;19916;-92
2023/04/30 13:08:39;;;;;;;;;;;24.80;62.80;;;;;;4990221;28;19933;-94
2023/04/30 13:11:12;;;;;;;;;;;25.30;63.20;;;;;;5003559;28;19968;-86
2023/04/30 13:13:38;;;;;;;;;;;25.40;60.20;;;;;;4978639;28;19964;-87
2023/04/30 13:16:04;;;;;;;;;;;24.50;58.90;;;;;;5005168;28;19953;-86
2023/04/30 13:18:30;;;;;;;;;;;24.30;62.00;;;;;;4976979;28;19909;-87
2023/04/30 13:20:55;;;;;;;;;;;24.50;61.20;;;;;;5003741;28;19918;-85
2023/04/30 13:23:21;;;;;;;;;;;24.90;61.00;;;;;;5004855;28;19905;-87
2023/04/30 13:25:46;;;;;;;;;;;24.90;61.20;;;;;;4988016;28;19952;-87
2023/04/30 13:28:24;;;;;;;;;;;24.80;60.20;;;;;;4988764;28;20784;-89
2023/04/30 13:30:49;;;;;;;;;;;25.00;60.40;;;;;;5016099;28;19906;-91
2023/04/30 13:33:15;;;;;;;;;;;24.70;58.90;;;;;;4994759;28;19920;-87
2023/04/30 13:35:41;;;;;;;;;;;24.90;59.50;;;;;;4988508;28;19905;-89
2023/04/30 13:38:06;;;;;;;;;;;25.30;58.50;;;;;;5000790;28;20167;-83
2023/04/30 13:40:32;;;;;;;;;;;25.60;59.50;;;;;;4977860;28;19921;-83
2023/04/30 13:42:57;;;;;;;;;;;25.40;58.50;;;;;;5121120;23;20925;-80
2023/04/30 13:45:23;;;;;;;;;;;24.90;58.50;;;;;;5022583;28;19909;-86
2023/04/30 13:47:48;;;;;;;;;;;24.40;59.20;;;;;;5003717;28;19921;-81
2023/04/30 13:50:14;;;;;;;;;;;23.90;59.80;;;;;;5006111;28;20013;-85
2023/04/30 13:52:39;;;;;;;;;;;23.60;61.30;;;;;;5006262;28;19906;-90
2023/04/30 13:55:06;;;;;;;;;;;23.50;62.30;;;;;;5006998;28;19916;-84
2023/04/30 13:57:32;;;;;;;;;;;23.70;61.00;;;;;;5007040;28;20376;-83
2023/04/30 13:59:57;;;;;;;;;;;24.20;61.50;;;;;;5009725;28;19905;-84
2023/04/30 14:02:25;;;;;;;;;;;25.00;59.50;;;;;;5023615;28;20450;-92
2023/04/30 14:04:51;;;;;;;;;;;25.30;58.40;;;;;;5009914;28;19913;-82
2023/04/30 14:07:19;;;;;;;;;;;25.40;57.40;;;;;;5002931;28;19964;-83
2023/04/30 14:09:47;;;;;;;;;;;25.60;57.30;;;;;;5006391;28;19944;-86
2023/04/30 14:12:12;;;;;;;;;;;25.60;57.60;;;;;;5006486;28;19980;-87
2023/04/30 14:14:38;;;;;;;;;;;25.70;57.30;;;;;;5011142;28;19987;-84
2023/04/30 14:17:04;;;;;;;;;;;26.00;56.60;;;;;;5008816;28;19919;-82
2023/04/30 14:19:29;;;;;;;;;;;26.20;56.30;;;;;;5006880;28;20268;-86
2023/04/30 14:21:55;;;;;;;;;;;26.30;57.30;;;;;;5008910;28;19983;-83